sensor_id;sensor_type;location;lat;lon;timestamp;P1;durP1;ratioP1;P2;durP2;ratioP2
63346;SDS011;49472;49.880;8.650;2023-03-01T00:01:26;25.57;;;20.50;;
63346;SDS011;49472;49.880;8.650;2023-03-01T00:03:53;22.57;;;20.17;;
63346;SDS011;49472;49.880;8.650;2023-03-01T00:06:19;24.43;;;21.53;;
63346;SDS011;49472;49.880;8.650;2023-03-01T00:08:45;23.60;;;21.10;;
63346;SDS011;49472;49.880;8.650;2023-03-01T00:11:21;23.43;;;21.00;;
63346;SDS011;49472;49.880;8.650;2023-03-01T00:13:49;25.67;;;21.33;;
63346;SDS011;49472;49.880;8.650;2023-03-01T00:16:17;20.73;;;18.63;;
63346;SDS011;49472;49.880;8.650;2023-03-01T00:18:45;22.27;;;19.93;;
63346;SDS011;49472;49.880;8.650;2023-03-01T00:21:10;25.83;;;21.43;;
63346;SDS011;49472;49.880;8.650;2023-03-01T00:23:36;24.43;;;21.20;;
63346;SDS011;49472;49.880;8.650;2023-03-01T00:26:05;25.67;;;20.67;;
63346;SDS011;49472;49.880;8.650;2023-03-01T00:28:32;23.07;;;20.30;;
63346;SDS011;49472;49.880;8.650;2023-03-01T00:31:02;23.00;;;20.60;;
63346;SDS011;49472;49.880;8.650;2023-03-01T00:33:29;29.90;;;20.80;;
63346;SDS011;49472;49.880;8.650;2023-03-01T00:35:54;26.00;;;20.80;;
63346;SDS011;49472;49.880;8.650;2023-03-01T00:38:19;24.57;;;20.47;;
63346;SDS011;49472;49.880;8.650;2023-03-01T00:40:44;22.63;;;20.20;;
63346;SDS011;49472;49.880;8.650;2023-03-01T00:43:10;23.30;;;20.73;;
63346;SDS011;49472;49.880;8.650;2023-03-01T00:45:35;31.60;;;20.63;;
63346;SDS011;49472;49.880;8.650;2023-03-01T00:48:00;22.70;;;20.30;;
63346;SDS011;49472;49.880;8.650;2023-03-01T00:50:26;24.30;;;20.87;;
63346;SDS011;49472;49.880;8.650;2023-03-01T00:52:55;24.90;;;21.27;;
63346;SDS011;49472;49.880;8.650;2023-03-01T00:55:20;22.27;;;19.87;;
63346;SDS011;49472;49.880;8.650;2023-03-01T00:57:46;29.93;;;22.30;;
63346;SDS011;49472;49.880;8.650;2023-03-01T01:00:11;25.67;;;21.90;;
63346;SDS011;49472;49.880;8.650;2023-03-01T01:02:37;22.83;;;20.53;;
63346;SDS011;49472;49.880;8.650;2023-03-01T01:05:03;23.60;;;20.50;;
63346;SDS011;49472;49.880;8.650;2023-03-01T01:07:29;28.37;;;21.33;;
63346;SDS011;49472;49.880;8.650;2023-03-01T01:09:54;24.97;;;21.17;;
63346;SDS011;49472;49.880;8.650;2023-03-01T01:12:20;24.90;;;21.93;;
63346;SDS011;49472;49.880;8.650;2023-03-01T01:14:45;25.20;;;21.80;;
63346;SDS011;49472;49.880;8.650;2023-03-01T01:17:11;28.43;;;21.60;;
63346;SDS011;49472;49.880;8.650;2023-03-01T01:19:36;25.90;;;21.83;;
63346;SDS011;49472;49.880;8.650;2023-03-01T01:22:02;24.43;;;20.90;;
63346;SDS011;49472;49.880;8.650;2023-03-01T01:24:28;26.37;;;21.93;;
63346;SDS011;49472;49.880;8.650;2023-03-01T01:26:53;30.63;;;21.13;;
63346;SDS011;49472;49.880;8.650;2023-03-01T01:29:19;25.20;;;22.00;;
63346;SDS011;49472;49.880;8.650;2023-03-01T01:31:44;27.20;;;21.53;;
63346;SDS011;49472;49.880;8.650;2023-03-01T01:34:13;28.20;;;20.73;;
63346;SDS011;49472;49.880;8.650;2023-03-01T01:36:43;25.77;;;21.63;;
63346;SDS011;49472;49.880;8.650;2023-03-01T01:39:11;24.70;;;21.40;;
63346;SDS011;49472;49.880;8.650;2023-03-01T01:41:38;25.80;;;21.70;;
63346;SDS011;49472;49.880;8.650;2023-03-01T01:44:15;22.97;;;20.57;;
63346;SDS011;49472;49.880;8.650;2023-03-01T01:46:50;24.83;;;22.00;;
63346;SDS011;49472;49.880;8.650;2023-03-01T01:49:23;24.60;;;21.13;;
63346;SDS011;49472;49.880;8.650;2023-03-01T01:51:56;27.13;;;21.80;;
63346;SDS011;49472;49.880;8.650;2023-03-01T01:54:38;30.10;;;23.60;;
63346;SDS011;49472;49.880;8.650;2023-03-01T01:57:07;25.00;;;20.63;;
63346;SDS011;49472;49.880;8.650;2023-03-01T01:59:37;27.93;;;21.57;;
63346;SDS011;49472;49.880;8.650;2023-03-01T02:02:04;28.67;;;22.80;;
63346;SDS011;49472;49.880;8.650;2023-03-01T02:04:30;25.30;;;21.97;;
63346;SDS011;49472;49.880;8.650;2023-03-01T02:07:01;28.17;;;22.40;;
63346;SDS011;49472;49.880;8.650;2023-03-01T02:09:32;27.73;;;21.60;;
63346;SDS011;49472;49.880;8.650;2023-03-01T02:11:59;26.63;;;22.13;;
63346;SDS011;49472;49.880;8.650;2023-03-01T02:14:25;29.30;;;22.70;;
63346;SDS011;49472;49.880;8.650;2023-03-01T02:16:51;24.20;;;21.00;;
63346;SDS011;49472;49.880;8.650;2023-03-01T02:19:20;29.30;;;22.80;;
63346;SDS011;49472;49.880;8.650;2023-03-01T02:22:02;26.77;;;22.03;;
63346;SDS011;49472;49.880;8.650;2023-03-01T02:24:42;27.80;;;21.73;;
63346;SDS011;49472;49.880;8.650;2023-03-01T02:27:09;26.07;;;22.70;;
63346;SDS011;49472;49.880;8.650;2023-03-01T02:29:34;28.70;;;23.57;;
63346;SDS011;49472;49.880;8.650;2023-03-01T02:32:00;27.40;;;21.57;;
63346;SDS011;49472;49.880;8.650;2023-03-01T02:34:28;25.27;;;21.40;;
63346;SDS011;49472;49.880;8.650;2023-03-01T02:36:57;28.17;;;22.67;;
63346;SDS011;49472;49.880;8.650;2023-03-01T02:39:37;26.87;;;22.27;;
63346;SDS011;49472;49.880;8.650;2023-03-01T02:42:07;27.83;;;23.10;;
63346;SDS011;49472;49.880;8.650;2023-03-01T02:44:38;26.47;;;21.77;;
63346;SDS011;49472;49.880;8.650;2023-03-01T02:47:03;29.17;;;23.40;;
63346;SDS011;49472;49.880;8.650;2023-03-01T02:49:31;28.33;;;23.07;;
63346;SDS011;49472;49.880;8.650;2023-03-01T02:52:04;30.83;;;22.90;;
63346;SDS011;49472;49.880;8.650;2023-03-01T02:57:18;27.57;;;21.90;;
63346;SDS011;49472;49.880;8.650;2023-03-01T02:59:43;32.20;;;24.00;;
63346;SDS011;49472;49.880;8.650;2023-03-01T03:02:19;27.43;;;21.87;;
63346;SDS011;49472;49.880;8.650;2023-03-01T03:07:56;30.90;;;22.30;;
63346;SDS011;49472;49.880;8.650;2023-03-01T03:10:24;27.03;;;22.63;;
63346;SDS011;49472;49.880;8.650;2023-03-01T03:12:56;28.20;;;21.90;;
63346;SDS011;49472;49.880;8.650;2023-03-01T03:15:24;27.67;;;22.63;;
63346;SDS011;49472;49.880;8.650;2023-03-01T03:17:52;31.50;;;21.87;;
63346;SDS011;49472;49.880;8.650;2023-03-01T03:20:19;27.97;;;22.73;;
63346;SDS011;49472;49.880;8.650;2023-03-01T03:22:47;26.87;;;22.70;;
63346;SDS011;49472;49.880;8.650;2023-03-01T03:25:13;29.03;;;23.23;;
63346;SDS011;49472;49.880;8.650;2023-03-01T03:27:40;25.23;;;21.60;;
63346;SDS011;49472;49.880;8.650;2023-03-01T03:30:09;26.27;;;23.10;;
63346;SDS011;49472;49.880;8.650;2023-03-01T03:32:44;32.17;;;23.83;;
63346;SDS011;49472;49.880;8.650;2023-03-01T03:35:17;26.67;;;22.23;;
63346;SDS011;49472;49.880;8.650;2023-03-01T03:37:55;27.73;;;22.83;;
63346;SDS011;49472;49.880;8.650;2023-03-01T03:40:34;27.73;;;22.63;;
63346;SDS011;49472;49.880;8.650;2023-03-01T03:43:12;33.03;;;22.73;;
63346;SDS011;49472;49.880;8.650;2023-03-01T03:45:39;35.20;;;24.47;;
63346;SDS011;49472;49.880;8.650;2023-03-01T03:48:05;28.10;;;23.50;;
63346;SDS011;49472;49.880;8.650;2023-03-01T03:50:32;26.03;;;22.30;;
63346;SDS011;49472;49.880;8.650;2023-03-01T03:53:00;28.10;;;23.20;;
63346;SDS011;49472;49.880;8.650;2023-03-01T03:55:26;27.60;;;22.37;;
63346;SDS011;49472;49.880;8.650;2023-03-01T03:57:55;34.10;;;22.93;;
63346;SDS011;49472;49.880;8.650;2023-03-01T04:00:22;30.90;;;23.70;;
63346;SDS011;49472;49.880;8.650;2023-03-01T04:02:49;32.40;;;24.70;;
63346;SDS011;49472;49.880;8.650;2023-03-01T04:05:16;27.10;;;23.17;;
63346;SDS011;49472;49.880;8.650;2023-03-01T04:07:42;30.47;;;23.13;;
63346;SDS011;49472;49.880;8.650;2023-03-01T04:10:10;30.90;;;25.10;;
63346;SDS011;49472;49.880;8.650;2023-03-01T04:12:39;31.43;;;23.47;;
63346;SDS011;49472;49.880;8.650;2023-03-01T04:15:05;28.70;;;23.03;;
63346;SDS011;49472;49.880;8.650;2023-03-01T04:17:41;29.43;;;23.80;;
63346;SDS011;49472;49.880;8.650;2023-03-01T04:20:08;28.50;;;23.37;;
63346;SDS011;49472;49.880;8.650;2023-03-01T04:22:36;31.07;;;22.70;;
63346;SDS011;49472;49.880;8.650;2023-03-01T04:25:03;26.30;;;22.60;;
63346;SDS011;49472;49.880;8.650;2023-03-01T04:27:31;30.93;;;23.27;;
63346;SDS011;49472;49.880;8.650;2023-03-01T04:29:59;30.57;;;23.93;;
63346;SDS011;49472;49.880;8.650;2023-03-01T04:32:24;27.57;;;23.77;;
63346;SDS011;49472;49.880;8.650;2023-03-01T04:34:49;30.53;;;23.07;;
63346;SDS011;49472;49.880;8.650;2023-03-01T04:37:15;30.37;;;23.30;;
63346;SDS011;49472;49.880;8.650;2023-03-01T04:39:40;32.20;;;23.93;;
63346;SDS011;49472;49.880;8.650;2023-03-01T04:42:10;27.07;;;23.13;;
63346;SDS011;49472;49.880;8.650;2023-03-01T04:44:36;34.50;;;23.90;;
63346;SDS011;49472;49.880;8.650;2023-03-01T04:47:01;32.87;;;23.67;;
63346;SDS011;49472;49.880;8.650;2023-03-01T04:49:27;32.80;;;24.77;;
63346;SDS011;49472;49.880;8.650;2023-03-01T04:51:52;31.13;;;23.77;;
63346;SDS011;49472;49.880;8.650;2023-03-01T04:54:17;34.00;;;25.30;;
63346;SDS011;49472;49.880;8.650;2023-03-01T04:56:42;31.07;;;23.57;;
63346;SDS011;49472;49.880;8.650;2023-03-01T04:59:07;31.37;;;24.07;;
63346;SDS011;49472;49.880;8.650;2023-03-01T05:01:35;34.47;;;23.10;;
63346;SDS011;49472;49.880;8.650;2023-03-01T05:04:01;32.03;;;24.80;;
63346;SDS011;49472;49.880;8.650;2023-03-01T05:06:28;35.80;;;24.70;;
63346;SDS011;49472;49.880;8.650;2023-03-01T05:08:53;31.73;;;24.30;;
63346;SDS011;49472;49.880;8.650;2023-03-01T05:11:18;34.33;;;24.80;;
63346;SDS011;49472;49.880;8.650;2023-03-01T05:13:44;34.33;;;24.30;;
63346;SDS011;49472;49.880;8.650;2023-03-01T05:16:10;29.87;;;24.80;;
63346;SDS011;49472;49.880;8.650;2023-03-01T05:18:36;35.33;;;25.53;;
63346;SDS011;49472;49.880;8.650;2023-03-01T05:21:09;37.77;;;26.77;;
63346;SDS011;49472;49.880;8.650;2023-03-01T05:23:36;35.33;;;25.97;;
63346;SDS011;49472;49.880;8.650;2023-03-01T05:26:02;29.93;;;24.10;;
63346;SDS011;49472;49.880;8.650;2023-03-01T05:28:29;29.40;;;24.40;;
63346;SDS011;49472;49.880;8.650;2023-03-01T05:30:55;29.60;;;25.27;;
63346;SDS011;49472;49.880;8.650;2023-03-01T05:33:22;39.80;;;24.47;;
63346;SDS011;49472;49.880;8.650;2023-03-01T05:35:48;31.60;;;25.03;;
63346;SDS011;49472;49.880;8.650;2023-03-01T05:38:15;35.33;;;24.10;;
63346;SDS011;49472;49.880;8.650;2023-03-01T05:40:41;34.53;;;25.33;;
63346;SDS011;49472;49.880;8.650;2023-03-01T05:43:08;33.07;;;26.80;;
63346;SDS011;49472;49.880;8.650;2023-03-01T05:45:35;33.30;;;25.97;;
63346;SDS011;49472;49.880;8.650;2023-03-01T05:48:02;38.43;;;26.90;;
63346;SDS011;49472;49.880;8.650;2023-03-01T05:50:29;28.57;;;24.77;;
63346;SDS011;49472;49.880;8.650;2023-03-01T05:53:00;29.83;;;24.33;;
63346;SDS011;49472;49.880;8.650;2023-03-01T05:55:35;50.43;;;25.30;;
63346;SDS011;49472;49.880;8.650;2023-03-01T05:58:02;31.33;;;24.00;;
63346;SDS011;49472;49.880;8.650;2023-03-01T06:00:29;33.43;;;25.30;;
63346;SDS011;49472;49.880;8.650;2023-03-01T06:02:55;30.30;;;25.33;;
63346;SDS011;49472;49.880;8.650;2023-03-01T06:05:21;28.90;;;23.80;;
63346;SDS011;49472;49.880;8.650;2023-03-01T06:07:47;31.67;;;24.03;;
63346;SDS011;49472;49.880;8.650;2023-03-01T06:10:13;35.27;;;26.40;;
63346;SDS011;49472;49.880;8.650;2023-03-01T06:12:39;30.37;;;25.10;;
63346;SDS011;49472;49.880;8.650;2023-03-01T06:15:06;33.27;;;25.97;;
63346;SDS011;49472;49.880;8.650;2023-03-01T06:17:34;30.53;;;23.60;;
63346;SDS011;49472;49.880;8.650;2023-03-01T06:20:03;32.87;;;25.57;;
63346;SDS011;49472;49.880;8.650;2023-03-01T06:22:30;46.53;;;25.13;;
63346;SDS011;49472;49.880;8.650;2023-03-01T06:24:55;32.80;;;26.10;;
63346;SDS011;49472;49.880;8.650;2023-03-01T06:27:20;37.60;;;25.93;;
63346;SDS011;49472;49.880;8.650;2023-03-01T06:29:45;31.87;;;26.00;;
63346;SDS011;49472;49.880;8.650;2023-03-01T06:32:11;34.03;;;24.60;;
63346;SDS011;49472;49.880;8.650;2023-03-01T06:34:36;34.83;;;26.20;;
63346;SDS011;49472;49.880;8.650;2023-03-01T06:37:01;33.17;;;24.37;;
63346;SDS011;49472;49.880;8.650;2023-03-01T06:39:30;40.23;;;26.60;;
63346;SDS011;49472;49.880;8.650;2023-03-01T06:41:56;30.53;;;24.50;;
63346;SDS011;49472;49.880;8.650;2023-03-01T06:44:21;36.60;;;25.27;;
63346;SDS011;49472;49.880;8.650;2023-03-01T06:46:46;36.27;;;25.53;;
63346;SDS011;49472;49.880;8.650;2023-03-01T06:49:12;33.43;;;27.27;;
63346;SDS011;49472;49.880;8.650;2023-03-01T06:51:37;42.63;;;28.00;;
63346;SDS011;49472;49.880;8.650;2023-03-01T06:54:03;33.47;;;26.37;;
63346;SDS011;49472;49.880;8.650;2023-03-01T06:56:29;46.93;;;25.77;;
63346;SDS011;49472;49.880;8.650;2023-03-01T06:58:55;35.50;;;25.37;;
63346;SDS011;49472;49.880;8.650;2023-03-01T07:01:21;32.20;;;26.03;;
63346;SDS011;49472;49.880;8.650;2023-03-01T07:03:46;34.10;;;27.70;;
63346;SDS011;49472;49.880;8.650;2023-03-01T07:06:11;35.63;;;27.37;;
63346;SDS011;49472;49.880;8.650;2023-03-01T07:08:36;29.87;;;25.73;;
63346;SDS011;49472;49.880;8.650;2023-03-01T07:11:02;34.00;;;27.90;;
63346;SDS011;49472;49.880;8.650;2023-03-01T07:13:28;40.93;;;26.37;;
63346;SDS011;49472;49.880;8.650;2023-03-01T07:15:53;32.93;;;27.17;;
63346;SDS011;49472;49.880;8.650;2023-03-01T07:18:19;38.27;;;26.37;;
63346;SDS011;49472;49.880;8.650;2023-03-01T07:20:44;31.80;;;27.13;;
63346;SDS011;49472;49.880;8.650;2023-03-01T07:23:09;34.83;;;27.93;;
63346;SDS011;49472;49.880;8.650;2023-03-01T07:25:34;33.77;;;26.67;;
63346;SDS011;49472;49.880;8.650;2023-03-01T07:28:00;34.27;;;25.93;;
63346;SDS011;49472;49.880;8.650;2023-03-01T07:30:25;31.70;;;27.63;;
63346;SDS011;49472;49.880;8.650;2023-03-01T07:32:52;33.43;;;26.90;;
63346;SDS011;49472;49.880;8.650;2023-03-01T07:35:17;31.90;;;26.60;;
63346;SDS011;49472;49.880;8.650;2023-03-01T07:37:43;30.80;;;26.23;;
63346;SDS011;49472;49.880;8.650;2023-03-01T07:40:09;37.10;;;28.30;;
63346;SDS011;49472;49.880;8.650;2023-03-01T07:42:34;33.40;;;26.47;;
63346;SDS011;49472;49.880;8.650;2023-03-01T07:45:00;31.53;;;26.60;;
63346;SDS011;49472;49.880;8.650;2023-03-01T07:47:25;32.40;;;26.97;;
63346;SDS011;49472;49.880;8.650;2023-03-01T07:49:50;30.83;;;25.63;;
63346;SDS011;49472;49.880;8.650;2023-03-01T07:52:16;32.10;;;26.47;;
63346;SDS011;49472;49.880;8.650;2023-03-01T07:54:42;28.80;;;24.70;;
63346;SDS011;49472;49.880;8.650;2023-03-01T07:57:08;34.80;;;26.43;;
63346;SDS011;49472;49.880;8.650;2023-03-01T07:59:34;34.07;;;27.37;;
63346;SDS011;49472;49.880;8.650;2023-03-01T08:01:59;30.07;;;25.80;;
63346;SDS011;49472;49.880;8.650;2023-03-01T08:04:24;31.33;;;26.90;;
63346;SDS011;49472;49.880;8.650;2023-03-01T08:06:51;31.57;;;26.57;;
63346;SDS011;49472;49.880;8.650;2023-03-01T08:09:17;28.87;;;25.53;;
63346;SDS011;49472;49.880;8.650;2023-03-01T08:11:42;31.23;;;26.40;;
63346;SDS011;49472;49.880;8.650;2023-03-01T08:14:08;32.00;;;26.60;;
63346;SDS011;49472;49.880;8.650;2023-03-01T08:16:35;30.57;;;26.10;;
63346;SDS011;49472;49.880;8.650;2023-03-01T08:19:05;33.40;;;27.20;;
63346;SDS011;49472;49.880;8.650;2023-03-01T08:21:31;35.60;;;25.83;;
63346;SDS011;49472;49.880;8.650;2023-03-01T08:23:57;31.57;;;25.57;;
63346;SDS011;49472;49.880;8.650;2023-03-01T08:26:22;31.10;;;26.00;;
63346;SDS011;49472;49.880;8.650;2023-03-01T08:28:48;29.63;;;25.80;;
63346;SDS011;49472;49.880;8.650;2023-03-01T08:33:48;29.73;;;25.87;;
63346;SDS011;49472;49.880;8.650;2023-03-01T08:36:20;32.20;;;27.03;;
63346;SDS011;49472;49.880;8.650;2023-03-01T08:38:46;33.60;;;26.97;;
63346;SDS011;49472;49.880;8.650;2023-03-01T08:41:11;28.87;;;25.20;;
63346;SDS011;49472;49.880;8.650;2023-03-01T08:43:37;36.53;;;27.17;;
63346;SDS011;49472;49.880;8.650;2023-03-01T08:46:02;31.10;;;25.50;;
63346;SDS011;49472;49.880;8.650;2023-03-01T08:48:27;37.43;;;28.73;;
63346;SDS011;49472;49.880;8.650;2023-03-01T08:50:53;35.70;;;26.63;;
63346;SDS011;49472;49.880;8.650;2023-03-01T08:53:18;32.63;;;26.20;;
63346;SDS011;49472;49.880;8.650;2023-03-01T08:55:44;29.57;;;26.47;;
63346;SDS011;49472;49.880;8.650;2023-03-01T08:58:09;30.93;;;26.33;;
63346;SDS011;49472;49.880;8.650;2023-03-01T09:00:34;29.20;;;25.67;;
63346;SDS011;49472;49.880;8.650;2023-03-01T09:03:00;32.20;;;26.90;;
63346;SDS011;49472;49.880;8.650;2023-03-01T09:05:25;35.60;;;27.27;;
63346;SDS011;49472;49.880;8.650;2023-03-01T09:07:51;32.00;;;26.80;;
63346;SDS011;49472;49.880;8.650;2023-03-01T09:10:16;30.80;;;26.80;;
63346;SDS011;49472;49.880;8.650;2023-03-01T09:12:41;35.23;;;27.60;;
63346;SDS011;49472;49.880;8.650;2023-03-01T09:15:07;36.83;;;27.60;;
63346;SDS011;49472;49.880;8.650;2023-03-01T09:17:32;30.90;;;26.90;;
63346;SDS011;49472;49.880;8.650;2023-03-01T09:19:58;32.50;;;27.20;;
63346;SDS011;49472;49.880;8.650;2023-03-01T09:22:24;32.67;;;27.40;;
63346;SDS011;49472;49.880;8.650;2023-03-01T09:24:49;33.23;;;27.47;;
63346;SDS011;49472;49.880;8.650;2023-03-01T09:27:15;32.90;;;27.30;;
63346;SDS011;49472;49.880;8.650;2023-03-01T09:29:43;33.93;;;27.93;;
63346;SDS011;49472;49.880;8.650;2023-03-01T09:32:08;31.07;;;27.10;;
63346;SDS011;49472;49.880;8.650;2023-03-01T09:34:34;36.63;;;27.83;;
63346;SDS011;49472;49.880;8.650;2023-03-01T09:37:19;31.77;;;27.40;;
63346;SDS011;49472;49.880;8.650;2023-03-01T09:39:44;33.13;;;28.40;;
63346;SDS011;49472;49.880;8.650;2023-03-01T09:42:10;32.47;;;28.10;;
63346;SDS011;49472;49.880;8.650;2023-03-01T09:44:45;45.97;;;27.60;;
63346;SDS011;49472;49.880;8.650;2023-03-01T09:47:36;31.50;;;26.50;;
63346;SDS011;49472;49.880;8.650;2023-03-01T09:52:40;32.33;;;28.40;;
63346;SDS011;49472;49.880;8.650;2023-03-01T09:55:09;35.20;;;28.27;;
63346;SDS011;49472;49.880;8.650;2023-03-01T09:57:50;33.57;;;27.37;;
63346;SDS011;49472;49.880;8.650;2023-03-01T10:00:22;37.73;;;29.40;;
63346;SDS011;49472;49.880;8.650;2023-03-01T10:05:52;31.47;;;28.07;;
63346;SDS011;49472;49.880;8.650;2023-03-01T10:08:40;34.80;;;28.70;;
63346;SDS011;49472;49.880;8.650;2023-03-01T10:11:22;32.70;;;27.37;;
63346;SDS011;49472;49.880;8.650;2023-03-01T10:19:40;30.77;;;27.43;;
63346;SDS011;49472;49.880;8.650;2023-03-01T10:22:15;38.37;;;28.70;;
63346;SDS011;49472;49.880;8.650;2023-03-01T10:24:46;36.50;;;28.60;;
63346;SDS011;49472;49.880;8.650;2023-03-01T10:30:16;55.90;;;44.17;;
63346;SDS011;49472;49.880;8.650;2023-03-01T10:32:46;33.03;;;29.17;;
63346;SDS011;49472;49.880;8.650;2023-03-01T10:35:17;34.70;;;29.37;;
63346;SDS011;49472;49.880;8.650;2023-03-01T10:38:01;36.40;;;29.83;;
63346;SDS011;49472;49.880;8.650;2023-03-01T10:40:30;35.83;;;29.63;;
63346;SDS011;49472;49.880;8.650;2023-03-01T10:42:57;37.37;;;29.17;;
63346;SDS011;49472;49.880;8.650;2023-03-01T10:50:33;36.43;;;29.57;;
63346;SDS011;49472;49.880;8.650;2023-03-01T10:52:59;35.63;;;29.70;;
63346;SDS011;49472;49.880;8.650;2023-03-01T10:55:34;37.53;;;30.57;;
63346;SDS011;49472;49.880;8.650;2023-03-01T11:00:48;36.17;;;29.90;;
63346;SDS011;49472;49.880;8.650;2023-03-01T11:03:17;30.83;;;27.50;;
63346;SDS011;49472;49.880;8.650;2023-03-01T11:08:29;33.30;;;29.50;;
63346;SDS011;49472;49.880;8.650;2023-03-01T11:13:55;34.83;;;28.80;;
63346;SDS011;49472;49.880;8.650;2023-03-01T11:16:38;32.40;;;27.53;;
63346;SDS011;49472;49.880;8.650;2023-03-01T11:21:37;32.83;;;28.37;;
63346;SDS011;49472;49.880;8.650;2023-03-01T11:24:06;29.83;;;26.63;;
63346;SDS011;49472;49.880;8.650;2023-03-01T11:26:36;35.10;;;30.20;;
63346;SDS011;49472;49.880;8.650;2023-03-01T11:29:06;31.17;;;27.33;;
63346;SDS011;49472;49.880;8.650;2023-03-01T11:31:57;33.57;;;29.03;;
63346;SDS011;49472;49.880;8.650;2023-03-01T11:34:40;36.80;;;28.20;;
63346;SDS011;49472;49.880;8.650;2023-03-01T11:37:21;35.00;;;29.77;;
63346;SDS011;49472;49.880;8.650;2023-03-01T11:40:03;32.17;;;28.77;;
63346;SDS011;49472;49.880;8.650;2023-03-01T11:45:11;34.97;;;28.43;;
63346;SDS011;49472;49.880;8.650;2023-03-01T11:50:35;37.20;;;28.73;;
63346;SDS011;49472;49.880;8.650;2023-03-01T11:59:02;31.53;;;28.23;;
63346;SDS011;49472;49.880;8.650;2023-03-01T12:01:53;31.53;;;28.13;;
63346;SDS011;49472;49.880;8.650;2023-03-01T12:07:25;39.57;;;30.80;;
63346;SDS011;49472;49.880;8.650;2023-03-01T12:13:22;28.93;;;25.73;;
63346;SDS011;49472;49.880;8.650;2023-03-01T12:15:27;29.53;;;26.53;;
63346;SDS011;49472;49.880;8.650;2023-03-01T12:21:26;28.93;;;25.93;;
63346;SDS011;49472;49.880;8.650;2023-03-01T12:24:13;29.83;;;26.73;;
63346;SDS011;49472;49.880;8.650;2023-03-01T12:27:20;31.73;;;25.60;;
63346;SDS011;49472;49.880;8.650;2023-03-01T12:42:56;27.50;;;24.90;;
63346;SDS011;49472;49.880;8.650;2023-03-01T12:48:21;28.63;;;25.70;;
63346;SDS011;49472;49.880;8.650;2023-03-01T12:51:01;26.20;;;23.70;;
63346;SDS011;49472;49.880;8.650;2023-03-01T12:53:32;27.13;;;24.40;;
63346;SDS011;49472;49.880;8.650;2023-03-01T12:56:01;25.87;;;23.57;;
63346;SDS011;49472;49.880;8.650;2023-03-01T13:04:05;30.33;;;27.33;;
63346;SDS011;49472;49.880;8.650;2023-03-01T13:11:59;26.43;;;23.63;;
63346;SDS011;49472;49.880;8.650;2023-03-01T13:16:53;26.27;;;23.87;;
63346;SDS011;49472;49.880;8.650;2023-03-01T13:19:24;26.55;;;24.08;;
63346;SDS011;49472;49.880;8.650;2023-03-01T13:21:51;26.27;;;23.88;;
63346;SDS011;49472;49.880;8.650;2023-03-01T13:24:28;26.50;;;23.90;;
63346;SDS011;49472;49.880;8.650;2023-03-01T13:29:45;26.50;;;24.00;;
63346;SDS011;49472;49.880;8.650;2023-03-01T13:32:23;28.90;;;25.05;;
63346;SDS011;49472;49.880;8.650;2023-03-01T13:34:57;25.52;;;23.20;;
63346;SDS011;49472;49.880;8.650;2023-03-01T13:37:29;25.98;;;23.27;;
63346;SDS011;49472;49.880;8.650;2023-03-01T13:40:08;25.48;;;23.13;;
63346;SDS011;49472;49.880;8.650;2023-03-01T13:42:52;24.95;;;22.65;;
63346;SDS011;49472;49.880;8.650;2023-03-01T13:45:22;23.23;;;21.08;;
63346;SDS011;49472;49.880;8.650;2023-03-01T13:47:58;25.38;;;22.98;;
63346;SDS011;49472;49.880;8.650;2023-03-01T13:50:30;25.85;;;23.30;;
63346;SDS011;49472;49.880;8.650;2023-03-01T13:53:02;24.73;;;22.40;;
63346;SDS011;49472;49.880;8.650;2023-03-01T13:55:41;24.80;;;22.50;;
63346;SDS011;49472;49.880;8.650;2023-03-01T13:58:27;24.75;;;22.38;;
63346;SDS011;49472;49.880;8.650;2023-03-01T14:01:05;23.45;;;21.27;;
63346;SDS011;49472;49.880;8.650;2023-03-01T14:03:32;24.10;;;21.77;;
63346;SDS011;49472;49.880;8.650;2023-03-01T14:06:08;24.77;;;22.40;;
63346;SDS011;49472;49.880;8.650;2023-03-01T14:08:38;25.42;;;22.98;;
63346;SDS011;49472;49.880;8.650;2023-03-01T14:12:11;27.92;;;22.83;;
63346;SDS011;49472;49.880;8.650;2023-03-01T14:19:57;23.55;;;21.17;;
63346;SDS011;49472;49.880;8.650;2023-03-01T14:22:28;22.42;;;20.50;;
63346;SDS011;49472;49.880;8.650;2023-03-01T14:25:00;23.45;;;21.38;;
63346;SDS011;49472;49.880;8.650;2023-03-01T14:27:44;24.10;;;21.90;;
63346;SDS011;49472;49.880;8.650;2023-03-01T14:30:19;22.90;;;20.70;;
63346;SDS011;49472;49.880;8.650;2023-03-01T14:33:00;23.30;;;20.95;;
63346;SDS011;49472;49.880;8.650;2023-03-01T14:35:31;22.25;;;19.98;;
63346;SDS011;49472;49.880;8.650;2023-03-01T14:37:58;23.20;;;20.80;;
63346;SDS011;49472;49.880;8.650;2023-03-01T14:42:58;24.25;;;20.50;;
63346;SDS011;49472;49.880;8.650;2023-03-01T14:45:27;22.70;;;20.33;;
63346;SDS011;49472;49.880;8.650;2023-03-01T14:47:55;21.85;;;19.80;;
63346;SDS011;49472;49.880;8.650;2023-03-01T14:50:32;22.17;;;20.17;;
63346;SDS011;49472;49.880;8.650;2023-03-01T14:53:00;30.95;;;21.55;;
63346;SDS011;49472;49.880;8.650;2023-03-01T14:55:31;30.55;;;22.27;;
63346;SDS011;49472;49.880;8.650;2023-03-01T14:57:57;24.05;;;21.60;;
63346;SDS011;49472;49.880;8.650;2023-03-01T15:00:27;23.33;;;21.15;;
63346;SDS011;49472;49.880;8.650;2023-03-01T15:02:54;22.92;;;20.92;;
63346;SDS011;49472;49.880;8.650;2023-03-01T15:05:26;25.15;;;22.00;;
63346;SDS011;49472;49.880;8.650;2023-03-01T15:07:55;24.42;;;22.25;;
63346;SDS011;49472;49.880;8.650;2023-03-01T15:10:23;23.85;;;21.42;;
63346;SDS011;49472;49.880;8.650;2023-03-01T15:12:50;23.00;;;21.00;;
63346;SDS011;49472;49.880;8.650;2023-03-01T15:15:34;24.17;;;21.92;;
63346;SDS011;49472;49.880;8.650;2023-03-01T15:18:02;22.60;;;20.55;;
63346;SDS011;49472;49.880;8.650;2023-03-01T15:20:30;24.42;;;21.55;;
63346;SDS011;49472;49.880;8.650;2023-03-01T15:23:00;22.35;;;20.48;;
63346;SDS011;49472;49.880;8.650;2023-03-01T15:25:27;25.73;;;23.20;;
63346;SDS011;49472;49.880;8.650;2023-03-01T15:27:55;26.05;;;22.60;;
63346;SDS011;49472;49.880;8.650;2023-03-01T15:30:27;25.93;;;23.50;;
63346;SDS011;49472;49.880;8.650;2023-03-01T15:35:52;25.30;;;23.00;;
63346;SDS011;49472;49.880;8.650;2023-03-01T15:41:38;27.27;;;24.33;;
63346;SDS011;49472;49.880;8.650;2023-03-01T15:44:16;26.30;;;23.50;;
63346;SDS011;49472;49.880;8.650;2023-03-01T15:47:04;26.63;;;23.83;;
63346;SDS011;49472;49.880;8.650;2023-03-01T15:49:47;27.13;;;24.23;;
63346;SDS011;49472;49.880;8.650;2023-03-01T15:52:21;28.70;;;25.60;;
63346;SDS011;49472;49.880;8.650;2023-03-01T15:54:54;30.00;;;24.37;;
63346;SDS011;49472;49.880;8.650;2023-03-01T15:57:21;26.30;;;23.73;;
63346;SDS011;49472;49.880;8.650;2023-03-01T15:59:46;26.53;;;23.83;;
63346;SDS011;49472;49.880;8.650;2023-03-01T16:02:12;27.60;;;23.30;;
63346;SDS011;49472;49.880;8.650;2023-03-01T16:04:38;26.53;;;23.83;;
63346;SDS011;49472;49.880;8.650;2023-03-01T16:07:03;27.10;;;23.83;;
63346;SDS011;49472;49.880;8.650;2023-03-01T16:09:29;28.03;;;24.53;;
63346;SDS011;49472;49.880;8.650;2023-03-01T16:11:55;29.17;;;24.20;;
63346;SDS011;49472;49.880;8.650;2023-03-01T16:14:20;27.53;;;24.50;;
63346;SDS011;49472;49.880;8.650;2023-03-01T16:16:46;26.87;;;24.17;;
63346;SDS011;49472;49.880;8.650;2023-03-01T16:19:13;28.83;;;23.57;;